Terminal Aerodrome Forecast
Issued by NWS

Home | Current Version | Previous Version | Graphics & Text | Print | Product List | Glossary On
Versions: 1 2 3 4 5 6 7 8 9 10 11 12 13 14 15
000
FTUS43 KBIS 130500
TAFDIK
TAF
KDIK 130523Z 1306/1406 34016G24KT P6SM OVC020
      TEMPO 1307/1311 OVC014
     FM131500 33016G24KT P6SM BKN035
     FM140200 33012KT P6SM OVC030=

USA.gov is the U.S. government's official web portal to all federal, state and local government web resources and services.